Time;durP1;ratioP1;P1;durP2;ratioP2;P2;SDS_P1;SDS_P2;PMS_P1;PMS_P2;Temp;Humidity;BMP_temperature;BMP_pressure;BME280_temperature;BME280_humidity;BME280_pressure;Samples;Min_cycle;Max_cycle;Signal;HPM_P1;HPM_P2
2023/01/27 00:01:38;;;;;;;14.87;11.70;;;;;;;2.45;67.77;94065.19;5044535;28;20264;-71
2023/01/27 00:04:04;;;;;;;14.93;12.60;;;;;;;2.40;67.94;94080.31;5051298;28;20266;-71
2023/01/27 00:06:29;;;;;;;13.10;11.30;;;;;;;2.22;68.33;94072.28;5047817;28;20389;-71
2023/01/27 00:08:55;;;;;;;13.93;12.00;;;;;;;2.36;67.53;94063.38;5050010;28;20213;-71
2023/01/27 00:14:04;;;;;;;12.03;10.77;;;;;;;2.35;67.74;94057.38;5050101;28;20229;-71
2023/01/27 00:16:33;;;;;;;12.50;11.20;;;;;;;2.37;67.83;94060.63;5052951;28;20252;-73
2023/01/27 00:18:59;;;;;;;11.27;10.00;;;;;;;2.23;68.28;94057.53;5045013;28;20240;-74
2023/01/27 00:26:55;;;;;;;11.63;9.97;;;;;;;2.47;67.83;94039.94;5047209;28;20237;-74
2023/01/27 00:29:21;;;;;;;11.60;10.33;;;;;;;2.43;68.05;94036.81;5046404;28;20233;-74
2023/01/27 00:34:30;;;;;;;11.53;10.37;;;;;;;2.31;68.76;94040.38;5043768;28;20285;-74
2023/01/27 00:36:56;;;;;;;10.73;9.73;;;;;;;2.25;68.84;94045.28;5051991;28;20284;-74
2023/01/27 00:39:21;;;;;;;12.13;10.27;;;;;;;2.32;68.74;94036.03;5045571;28;20252;-74
2023/01/27 00:41:46;;;;;;;11.40;10.20;;;;;;;2.31;68.55;94036.97;5059194;28;20247;-75
2023/01/27 00:44:12;;;;;;;11.33;9.70;;;;;;;2.21;68.60;94040.31;5048178;28;20224;-75
2023/01/27 00:46:37;;;;;;;11.07;9.93;;;;;;;2.18;68.93;94035.38;5049290;28;20217;-74
2023/01/27 00:49:03;;;;;;;12.13;10.83;;;;;;;2.26;69.16;94052.91;5054778;28;20224;-72
2023/01/27 00:51:28;;;;;;;13.10;10.83;;;;;;;2.37;68.50;94054.63;5049578;28;20300;-74
2023/01/27 00:53:54;;;;;;;11.70;9.57;;;;;;;2.34;68.65;94057.47;5053392;28;20225;-74
2023/01/27 00:56:19;;;;;;;12.03;9.57;;;;;;;2.35;68.43;94048.72;5047348;28;20228;-72
2023/01/27 00:58:45;;;;;;;11.43;9.67;;;;;;;2.31;68.67;94052.53;5049096;28;20243;-71
2023/01/27 01:01:14;;;;;;;11.00;9.60;;;;;;;2.34;68.13;94041.91;5049955;28;20222;-73
2023/01/27 01:03:40;;;;;;;11.20;9.97;;;;;;;2.28;68.27;94051.03;5071789;28;20193;-73
2023/01/27 01:06:08;;;;;;;12.13;10.53;;;;;;;2.32;68.67;94036.84;5051506;28;20209;-73
2023/01/27 01:08:35;;;;;;;11.27;10.07;;;;;;;2.24;68.65;94041.00;5054216;28;20228;-73
2023/01/27 01:11:01;;;;;;;13.90;11.13;;;;;;;2.29;68.59;94038.88;5049095;28;20221;-74
2023/01/27 01:13:27;;;;;;;12.13;10.40;;;;;;;2.31;68.57;94039.56;5054897;28;20217;-73
2023/01/27 01:15:53;;;;;;;13.50;10.83;;;;;;;2.40;68.29;94039.63;5052195;28;20347;-73
2023/01/27 01:18:19;;;;;;;10.87;9.73;;;;;;;2.41;68.17;94043.88;5050327;28;20225;-73
2023/01/27 01:20:45;;;;;;;12.40;11.20;;;;;;;2.40;68.53;94044.00;5050220;28;20221;-73
2023/01/27 01:23:12;;;;;;;11.90;10.70;;;;;;;2.37;68.31;94044.25;5056694;28;20244;-72
2023/01/27 01:25:38;;;;;;;11.53;10.00;;;;;;;2.32;68.75;94044.63;5057174;28;20283;-74
2023/01/27 01:28:05;;;;;;;9.53;8.40;;;;;;;2.34;68.85;94039.31;5049160;28;20225;-72
2023/01/27 01:30:33;;;;;;;10.07;9.07;;;;;;;2.43;68.23;94033.34;5053653;28;20311;-71
2023/01/27 01:32:58;;;;;;;10.10;9.10;;;;;;;2.42;68.10;94036.91;5053101;28;20212;-73
2023/01/27 01:35:24;;;;;;;10.10;7.97;;;;;;;2.33;68.28;94043.69;5052556;28;20213;-72
2023/01/27 01:37:51;;;;;;;8.80;7.90;;;;;;;2.33;68.52;94051.47;5052195;28;20224;-73
2023/01/27 01:40:17;;;;;;;8.83;7.93;;;;;;;2.37;68.20;94054.63;5044637;28;20228;-72
2023/01/27 01:43:01;;;;;;;8.17;7.37;;;;;;;2.38;68.30;94062.28;5048254;28;20205;-72
2023/01/27 01:45:32;;;;;;;8.37;7.53;;;;;;;2.42;68.17;94063.69;5044000;28;20259;-72
2023/01/27 01:48:02;;;;;;;8.30;7.50;;;;;;;2.36;68.43;94053.81;5051983;28;20221;-72
2023/01/27 01:50:28;;;;;;;7.73;6.97;;;;;;;2.42;68.20;94052.47;5045737;28;20225;-74
2023/01/27 01:52:54;;;;;;;8.20;7.40;;;;;;;2.33;68.33;94040.28;5062018;28;20268;-73
2023/01/27 01:55:22;;;;;;;7.37;6.67;;;;;;;2.42;68.39;94037.72;5048753;28;20209;-72
2023/01/27 01:57:48;;;;;;;8.00;7.20;;;;;;;2.35;68.31;94035.75;5048941;28;20210;-74
2023/01/27 02:00:14;;;;;;;8.90;8.00;;;;;;;2.41;68.46;94043.06;5055465;28;20197;-74
2023/01/27 02:02:40;;;;;;;14.63;12.93;;;;;;;2.29;68.75;94033.69;5052195;28;20275;-73
2023/01/27 02:05:17;;;;;;;13.50;12.10;;;;;;;2.12;68.16;94015.13;5054702;28;20228;-73
2023/01/27 02:07:56;;;;;;;14.80;12.53;;;;;;;2.15;69.08;94019.25;5051003;28;20239;-75
2023/01/27 02:10:22;;;;;;;12.43;11.13;;;;;;;2.17;68.76;94009.59;5051186;28;20240;-75
2023/01/27 02:12:48;;;;;;;13.27;11.97;;;;;;;2.18;68.89;93999.06;5048335;28;20189;-75
2023/01/27 02:15:13;;;;;;;13.93;11.67;;;;;;;2.18;69.17;93993.88;5057253;28;20190;-73
2023/01/27 02:17:39;;;;;;;12.83;11.53;;;;;;;2.13;69.58;93996.03;5050223;28;20237;-73
2023/01/27 02:20:34;;;;;;;12.77;11.47;;;;;;;2.06;69.65;94000.09;5032450;28;20286;-73
2023/01/27 02:23:25;;;;;;;13.23;11.83;;;;;;;2.10;69.76;93978.13;4979951;28;20234;-73
2023/01/27 02:25:54;;;;;;;12.20;10.70;;;;;;;2.21;69.29;93985.03;4976041;28;20374;-74
2023/01/27 02:28:19;;;;;;;13.47;12.07;;;;;;;2.13;69.96;93985.66;4975313;28;20255;-74
2023/01/27 02:30:45;;;;;;;14.10;12.50;;;;;;;1.97;70.09;93980.09;4978207;28;20717;-74
2023/01/27 02:33:12;;;;;;;15.87;14.20;;;;;;;1.71;70.93;93983.03;4978622;28;20210;-74
2023/01/27 02:35:46;;;;;;;16.53;13.43;;;;;;;1.83;69.95;93983.81;4977167;28;20270;-75
2023/01/27 02:38:14;;;;;;;13.77;12.37;;;;;;;1.89;69.57;93985.06;4993999;28;20262;-73
2023/01/27 02:40:41;;;;;;;13.47;12.10;;;;;;;1.95;69.40;93974.19;4988959;28;20265;-74
2023/01/27 02:43:06;;;;;;;14.00;12.50;;;;;;;1.88;69.14;93976.47;4977825;28;20219;-73
2023/01/27 02:45:31;;;;;;;14.70;13.13;;;;;;;1.80;69.53;93980.66;4975953;28;20207;-73
2023/01/27 02:47:57;;;;;;;15.43;12.57;;;;;;;1.71;69.75;93989.97;4973153;28;20199;-72
2023/01/27 02:50:22;;;;;;;14.77;13.23;;;;;;;1.79;69.37;93991.94;4988615;28;20224;-72
2023/01/27 02:52:48;;;;;;;14.97;13.37;;;;;;;1.86;69.28;94000.88;4975520;28;20235;-72
2023/01/27 02:55:13;;;;;;;15.60;14.00;;;;;;;1.85;69.12;93994.06;4974050;28;20215;-72
2023/01/27 02:57:38;;;;;;;13.73;12.43;;;;;;;1.95;69.09;93995.78;4976135;28;20242;-71
2023/01/27 03:00:04;;;;;;;14.57;13.17;;;;;;;2.09;69.40;93994.66;5017088;28;20227;-71
2023/01/27 03:02:30;;;;;;;14.70;13.20;;;;;;;2.08;68.63;93992.97;5046420;28;20225;-73
2023/01/27 03:04:56;;;;;;;16.80;13.07;;;;;;;1.97;68.65;93980.91;5054851;28;20233;-72
2023/01/27 03:07:25;;;;;;;14.17;12.77;;;;;;;2.02;68.65;93979.72;5049234;28;20220;-75
2023/01/27 03:09:51;;;;;;;14.53;13.00;;;;;;;1.97;68.50;93978.31;5049611;28;20228;-74
2023/01/27 03:12:19;;;;;;;16.20;14.27;;;;;;;1.94;68.77;93977.75;5053298;28;20200;-74
2023/01/27 03:20:19;;;;;;;16.07;14.10;;;;;;;2.05;69.20;93949.16;5051421;28;20239;-74
2023/01/27 03:22:44;;;;;;;15.60;13.93;;;;;;;2.05;68.99;93956.94;5049809;28;20226;-74
2023/01/27 03:25:10;;;;;;;16.50;14.80;;;;;;;2.03;69.01;93951.06;5050927;28;20648;-74
2023/01/27 03:27:36;;;;;;;16.40;14.70;;;;;;;2.02;69.53;93951.19;5048003;28;20198;-73
2023/01/27 03:30:02;;;;;;;17.30;15.50;;;;;;;1.96;69.71;93948.16;5046321;28;20197;-74
2023/01/27 03:32:30;;;;;;;16.23;14.63;;;;;;;1.99;69.19;93944.50;5048221;28;20222;-74
2023/01/27 03:34:56;;;;;;;16.03;14.43;;;;;;;1.97;69.41;93939.41;5047742;28;20221;-73
2023/01/27 03:48:31;;;;;;;16.63;14.83;;;;;;;1.91;69.83;93913.19;5052209;28;20196;-73
2023/01/27 03:50:57;;;;;;;17.50;15.70;;;;;;;1.86;69.96;93916.16;5033130;28;20230;-75
2023/01/27 03:53:23;;;;;;;16.73;14.83;;;;;;;1.85;70.29;93924.06;5051576;28;20220;-75
2023/01/27 03:55:48;;;;;;;16.77;14.20;;;;;;;1.82;70.16;93921.72;5048323;28;20227;-75
2023/01/27 03:58:27;;;;;;;15.83;14.20;;;;;;;1.79;70.01;93914.19;5048030;28;20225;-75
2023/01/27 04:00:59;;;;;;;17.57;14.60;;;;;;;1.87;70.10;93914.38;5053474;28;20303;-73
2023/01/27 04:08:58;;;;;;;12.63;11.33;;;;;;;1.83;70.43;93957.06;5052320;28;20220;-75
2023/01/27 04:14:08;;;;;;;12.00;10.80;;;;;;;2.03;69.74;93981.34;5047022;28;20351;-74
2023/01/27 04:19:25;;;;;;;13.43;11.03;;;;;;;1.75;69.99;93991.38;5010421;28;20241;-74
2023/01/27 04:21:51;;;;;;;11.77;10.57;;;;;;;1.80;69.57;93991.84;5023693;28;20226;-74
2023/01/27 04:24:23;;;;;;;11.77;10.63;;;;;;;1.83;69.61;93983.81;5010398;28;20191;-74
2023/01/27 04:27:00;;;;;;;12.17;10.87;;;;;;;1.86;70.35;93987.91;5010443;28;20227;-74
2023/01/27 04:29:29;;;;;;;12.40;11.10;;;;;;;1.96;69.95;94001.78;5006202;28;20760;-75
2023/01/27 04:31:55;;;;;;;13.47;11.50;;;;;;;2.01;69.96;94006.59;5010285;28;20225;-73
2023/01/27 04:34:20;;;;;;;12.10;10.90;;;;;;;1.69;70.46;94008.25;5011477;28;20226;-75
2023/01/27 04:36:46;;;;;;;12.20;10.90;;;;;;;1.89;69.85;94005.81;5010389;28;20245;-73
2023/01/27 04:39:13;;;;;;;12.83;11.40;;;;;;;1.96;69.82;94004.38;5010270;28;20187;-73
2023/01/27 04:41:39;;;;;;;14.20;11.90;;;;;;;1.94;69.87;94008.84;5021999;28;20297;-74
2023/01/27 04:44:05;;;;;;;12.97;11.67;;;;;;;2.04;70.16;94017.53;5026472;28;20262;-73
2023/01/27 04:46:32;;;;;;;12.40;11.20;;;;;;;2.01;70.21;94002.22;5011261;28;20219;-74
2023/01/27 04:48:59;;;;;;;13.80;11.60;;;;;;;2.08;70.07;94002.53;5012090;28;20226;-73
2023/01/27 04:51:24;;;;;;;15.23;13.67;;;;;;;1.84;70.63;94008.75;5013051;28;20199;-73
2023/01/27 04:53:50;;;;;;;14.10;12.60;;;;;;;1.93;70.90;94008.03;5008467;28;20242;-73
2023/01/27 04:56:23;;;;;;;12.80;11.50;;;;;;;2.01;70.85;94017.78;5008845;28;20227;-73
2023/01/27 04:58:49;;;;;;;14.67;12.33;;;;;;;1.80;71.13;94015.16;5009765;28;20235;-74
2023/01/27 05:01:15;;;;;;;15.07;12.57;;;;;;;2.00;71.05;94016.13;5025580;28;21235;-73
2023/01/27 05:03:40;;;;;;;13.00;11.30;;;;;;;1.99;70.97;94017.09;5011648;28;20191;-73
2023/01/27 05:06:06;;;;;;;14.37;11.77;;;;;;;2.04;71.06;94016.72;5030356;28;20211;-72
2023/01/27 05:08:31;;;;;;;14.67;12.43;;;;;;;2.07;71.46;94017.28;5015425;28;20222;-72
2023/01/27 05:10:56;;;;;;;14.87;11.87;;;;;;;2.10;71.26;94014.44;5014223;28;20227;-74
2023/01/27 05:13:22;;;;;;;14.23;11.37;;;;;;;2.12;70.58;94014.31;5012398;28;20227;-74
2023/01/27 05:15:47;;;;;;;13.47;11.67;;;;;;;2.05;71.07;93997.59;5013015;28;20269;-73
2023/01/27 05:18:13;;;;;;;12.07;10.77;;;;;;;2.14;70.84;94002.06;5035906;28;20237;-74
2023/01/27 05:20:39;;;;;;;11.33;9.83;;;;;;;2.17;70.15;94010.41;5054199;28;20228;-74
2023/01/27 05:25:48;;;;;;;9.50;8.17;;;;;;;2.06;70.77;93994.91;5055852;28;20255;-75
2023/01/27 05:28:14;;;;;;;12.57;9.10;;;;;;;1.57;71.54;93993.66;5053549;28;20237;-74
2023/01/27 05:30:39;;;;;;;10.07;8.83;;;;;;;1.77;71.59;93977.34;5047005;28;20568;-74
2023/01/27 05:33:07;;;;;;;10.23;8.77;;;;;;;1.97;70.85;93985.25;5050143;28;20192;-74
2023/01/27 05:35:34;;;;;;;10.53;9.40;;;;;;;1.86;71.34;93987.91;5052891;28;20689;-73
2023/01/27 05:37:59;;;;;;;9.47;8.47;;;;;;;2.00;71.41;93992.78;5054778;28;20260;-74
2023/01/27 05:40:25;;;;;;;11.17;8.87;;;;;;;2.09;70.80;93986.88;5056683;28;20241;-75
2023/01/27 05:42:51;;;;;;;11.80;8.90;;;;;;;2.02;71.30;93971.94;5051876;28;20193;-75
2023/01/27 05:45:17;;;;;;;13.20;9.67;;;;;;;2.13;70.73;93971.88;5048747;28;20208;-75
2023/01/27 05:47:42;;;;;;;9.50;8.43;;;;;;;2.16;70.57;93976.81;5054207;28;20324;-76
2023/01/27 05:50:08;;;;;;;10.30;9.20;;;;;;;2.20;70.92;93980.81;5051134;28;20250;-76
2023/01/27 05:52:34;;;;;;;11.60;9.57;;;;;;;2.23;70.81;93980.53;5049985;28;20252;-74
2023/01/27 05:54:59;;;;;;;12.60;10.73;;;;;;;1.88;71.33;93983.44;5049065;28;20233;-76
2023/01/27 05:57:24;;;;;;;12.93;11.17;;;;;;;2.06;71.01;93994.06;5052127;28;20243;-74
2023/01/27 05:59:50;;;;;;;13.03;11.07;;;;;;;2.09;70.90;93994.66;5051828;28;20225;-74
2023/01/27 06:02:15;;;;;;;12.67;10.57;;;;;;;2.07;70.46;94006.91;5052805;28;20232;-75
2023/01/27 06:04:41;;;;;;;13.57;10.30;;;;;;;1.64;72.21;93999.19;5053437;28;20225;-74
2023/01/27 06:07:06;;;;;;;12.40;11.10;;;;;;;1.79;71.55;93992.75;5050364;28;20336;-74
2023/01/27 06:09:32;;;;;;;14.23;12.50;;;;;;;1.82;71.73;93989.94;5050198;28;20200;-75
2023/01/27 06:11:58;;;;;;;13.37;11.33;;;;;;;1.88;71.50;93984.25;5050919;28;20229;-75
2023/01/27 06:14:23;;;;;;;15.20;12.10;;;;;;;1.90;70.78;93994.50;5056852;28;20271;-74
2023/01/27 06:16:48;;;;;;;13.93;12.53;;;;;;;1.96;71.00;93994.81;5048926;28;20229;-74
2023/01/27 06:19:14;;;;;;;12.37;10.90;;;;;;;1.98;70.36;93986.94;5054312;28;20345;-72
2023/01/27 06:21:39;;;;;;;12.50;10.50;;;;;;;1.93;70.21;93992.47;5048296;28;20785;-71
2023/01/27 06:24:05;;;;;;;10.43;9.07;;;;;;;1.93;71.04;93999.44;5052627;28;20296;-68
2023/01/27 06:26:31;;;;;;;11.67;10.47;;;;;;;1.65;71.73;94004.25;5054342;28;20232;-70
2023/01/27 06:28:56;;;;;;;12.37;10.00;;;;;;;1.47;72.36;93995.34;5051873;28;20227;-73
2023/01/27 06:31:22;;;;;;;11.03;9.37;;;;;;;1.71;71.33;94001.19;5048010;28;20265;-73
2023/01/27 06:33:48;;;;;;;14.67;10.33;;;;;;;1.96;70.33;93999.19;5056304;28;20192;-73
2023/01/27 06:36:17;;;;;;;12.37;9.47;;;;;;;2.06;69.92;93994.06;5050591;28;20680;-74
2023/01/27 06:38:44;;;;;;;11.50;9.00;;;;;;;2.17;69.32;93999.22;5048587;28;20557;-74
2023/01/27 06:41:09;;;;;;;10.47;9.07;;;;;;;2.23;69.04;94010.84;5036142;28;20229;-78
2023/01/27 06:43:35;;;;;;;9.60;8.50;;;;;;;2.21;68.61;94004.00;5050776;28;20237;-77
2023/01/27 06:46:00;;;;;;;9.63;8.70;;;;;;;2.09;69.12;94004.19;5059451;28;20317;-76
2023/01/27 06:48:26;;;;;;;10.03;9.03;;;;;;;2.19;68.97;94011.09;5067694;28;20185;-80
2023/01/27 06:50:53;;;;;;;10.57;9.47;;;;;;;2.21;68.61;94014.38;5054970;28;20233;-77
2023/01/27 06:53:18;;;;;;;10.80;9.70;;;;;;;2.15;68.48;94014.88;5052950;28;20520;-72
2023/01/27 06:55:44;;;;;;;11.30;10.20;;;;;;;2.18;68.66;94017.22;5047466;28;20325;-79
2023/01/27 06:58:12;;;;;;;13.40;10.40;;;;;;;2.25;68.69;94019.34;5048511;28;20294;-76
2023/01/27 07:00:39;;;;;;;12.10;10.30;;;;;;;2.24;68.67;94025.44;5048232;28;20197;-77
2023/01/27 07:03:05;;;;;;;11.30;9.67;;;;;;;2.30;68.27;94019.75;5047408;28;20207;-76
2023/01/27 07:05:32;;;;;;;10.50;9.37;;;;;;;2.37;67.99;94026.09;5052711;28;20300;-78
2023/01/27 07:07:58;;;;;;;13.87;9.83;;;;;;;2.50;67.64;94031.91;5050187;28;20229;-77
2023/01/27 07:10:23;;;;;;;13.17;9.67;;;;;;;2.47;67.45;94037.34;5047041;28;20227;-77
2023/01/27 07:12:49;;;;;;;12.37;10.40;;;;;;;2.37;68.05;94026.91;5053477;28;20185;-78
2023/01/27 07:15:14;;;;;;;11.90;9.40;;;;;;;2.49;67.15;94022.50;5053557;28;20189;-79
2023/01/27 07:17:40;;;;;;;13.70;12.03;;;;;;;2.54;67.38;94022.94;5053144;28;20250;-75
2023/01/27 07:20:08;;;;;;;11.20;9.40;;;;;;;2.27;67.77;94020.00;5049956;28;20225;-82
2023/01/27 07:22:34;;;;;;;11.93;10.07;;;;;;;2.37;67.77;94026.09;5051612;28;20232;-74
2023/01/27 07:25:00;;;;;;;10.83;9.63;;;;;;;2.32;67.69;94015.25;5048314;28;20304;-77
2023/01/27 07:27:27;;;;;;;11.03;9.83;;;;;;;2.48;67.43;94018.22;5054833;28;20236;-76
2023/01/27 07:29:52;;;;;;;10.17;9.03;;;;;;;2.53;66.92;94017.84;5050906;28;20238;-76
2023/01/27 07:32:18;;;;;;;9.33;8.43;;;;;;;2.54;67.20;94022.94;5049970;28;20217;-76
2023/01/27 07:34:43;;;;;;;10.80;9.63;;;;;;;2.57;67.19;94014.88;5048780;28;20229;-72
2023/01/27 07:37:09;;;;;;;12.43;10.97;;;;;;;2.43;67.82;94026.41;5054058;28;20217;-75
2023/01/27 07:39:37;;;;;;;14.43;10.80;;;;;;;2.62;66.96;94024.91;5050953;28;20204;-72
2023/01/27 07:42:04;;;;;;;13.83;12.17;;;;;;;2.54;67.04;94025.53;5051048;28;20197;-74
2023/01/27 07:44:29;;;;;;;11.20;10.00;;;;;;;2.45;67.67;94021.09;5044576;28;20279;-74
2023/01/27 07:46:57;;;;;;;14.73;11.43;;;;;;;2.49;67.90;94032.06;5051344;28;20237;-72
2023/01/27 07:49:22;;;;;;;11.87;10.17;;;;;;;2.51;67.36;94025.75;5050213;28;20217;-74
2023/01/27 07:51:48;;;;;;;13.13;10.13;;;;;;;2.62;67.48;94025.72;5048886;28;20189;-76
2023/01/27 07:54:13;;;;;;;11.83;9.33;;;;;;;2.53;67.05;94029.06;5049508;28;20189;-75
2023/01/27 07:56:38;;;;;;;10.57;9.20;;;;;;;2.61;67.23;94036.22;5046948;28;20206;-74
2023/01/27 07:59:04;;;;;;;18.17;10.60;;;;;;;2.63;67.09;94034.31;5050180;28;20225;-76
2023/01/27 08:01:30;;;;;;;14.33;11.87;;;;;;;2.72;67.08;94033.53;5056219;28;20681;-74
2023/01/27 08:03:55;;;;;;;11.57;8.63;;;;;;;2.86;66.18;94019.38;5049059;28;20299;-75
2023/01/27 08:06:21;;;;;;;10.60;8.10;;;;;;;2.85;65.94;94023.75;5051836;28;20205;-73
2023/01/27 08:08:47;;;;;;;10.50;7.17;;;;;;;2.70;65.43;94024.22;5047735;28;20228;-73
2023/01/27 08:11:14;;;;;;;9.17;7.10;;;;;;;2.72;65.46;94019.75;5044923;28;20217;-73
2023/01/27 08:13:40;;;;;;;8.33;7.03;;;;;;;2.93;65.62;94019.72;5047198;28;20239;-73
2023/01/27 08:16:09;;;;;;;7.57;6.87;;;;;;;2.90;65.15;94025.16;5049228;28;20354;-74
2023/01/27 08:18:38;;;;;;;9.40;7.77;;;;;;;2.81;65.00;94021.56;5047547;28;20221;-76
2023/01/27 08:21:07;;;;;;;8.03;7.13;;;;;;;2.90;65.01;94007.81;5050900;28;20185;-74
2023/01/27 08:23:33;;;;;;;8.63;7.10;;;;;;;2.93;65.03;94022.31;5045279;28;20285;-78
2023/01/27 08:26:01;;;;;;;8.40;7.53;;;;;;;2.91;64.84;94029.38;5050524;28;20309;-73
2023/01/27 08:28:28;;;;;;;7.27;6.60;;;;;;;2.71;65.14;94031.09;5040223;28;20242;-75
2023/01/27 08:30:54;;;;;;;8.07;6.07;;;;;;;2.73;65.06;94035.19;5045362;28;20217;-74
2023/01/27 08:33:23;;;;;;;9.20;6.87;;;;;;;2.85;64.83;94033.34;5047295;28;20243;-75
2023/01/27 08:35:49;;;;;;;8.00;6.87;;;;;;;2.79;65.22;94033.84;5047086;28;20217;-74
2023/01/27 08:38:17;;;;;;;8.73;6.87;;;;;;;2.87;64.94;94034.03;5045834;28;20244;-73
2023/01/27 08:40:43;;;;;;;7.03;6.33;;;;;;;2.82;64.45;94042.19;5052299;28;20248;-72
2023/01/27 08:43:10;;;;;;;7.13;6.40;;;;;;;2.60;65.08;94045.78;5045328;28;20221;-71
2023/01/27 08:45:36;;;;;;;7.63;6.83;;;;;;;2.61;65.24;94044.00;5046198;28;20217;-73
2023/01/27 08:48:04;;;;;;;8.47;6.60;;;;;;;2.49;65.46;94045.03;5048335;28;20197;-72
2023/01/27 08:50:29;;;;;;;6.67;5.80;;;;;;;2.59;64.93;94038.09;5047228;28;20573;-75
2023/01/27 08:52:59;;;;;;;8.50;5.80;;;;;;;2.64;64.74;94047.16;5048343;28;20321;-75
2023/01/27 08:55:26;;;;;;;6.70;6.00;;;;;;;2.71;65.11;94041.47;5043646;28;20221;-71
2023/01/27 08:57:52;;;;;;;7.13;6.43;;;;;;;2.76;64.93;94031.53;5044865;28;20217;-73
2023/01/27 09:00:17;;;;;;;8.00;6.97;;;;;;;2.46;66.37;94033.13;5045419;28;20213;-71
2023/01/27 09:02:43;;;;;;;7.73;6.27;;;;;;;2.65;65.78;94038.44;5045554;28;20225;-72
2023/01/27 09:05:09;;;;;;;7.53;6.73;;;;;;;2.78;64.88;94033.03;5046837;28;20217;-70
2023/01/27 09:07:34;;;;;;;7.70;6.27;;;;;;;2.59;65.40;94033.75;5048905;28;20560;-70
2023/01/27 09:10:00;;;;;;;8.63;6.00;;;;;;;2.63;65.46;94034.31;5046619;28;20232;-70
2023/01/27 09:12:25;;;;;;;7.97;5.90;;;;;;;2.81;65.14;94032.78;5044209;28;20281;-72
2023/01/27 09:14:51;;;;;;;7.93;5.67;;;;;;;2.83;65.06;94035.22;5047939;28;20223;-72
2023/01/27 09:17:18;;;;;;;5.80;5.20;;;;;;;2.84;64.15;94042.09;5051029;28;20232;-74
2023/01/27 09:19:44;;;;;;;10.77;5.33;;;;;;;2.65;64.37;94038.44;5050775;28;20248;-73
2023/01/27 09:22:10;;;;;;;7.37;6.10;;;;;;;2.72;64.88;94035.31;5053211;28;20239;-78
2023/01/27 09:24:35;;;;;;;6.40;4.60;;;;;;;2.80;64.49;94030.28;5052917;28;20195;-80
2023/01/27 09:27:01;;;;;;;5.50;4.90;;;;;;;2.86;64.29;94024.56;5055266;28;20227;-78
2023/01/27 09:29:26;;;;;;;5.27;4.77;;;;;;;2.81;64.12;94029.38;5051777;28;20406;-74
2023/01/27 09:31:55;;;;;;;8.13;5.73;;;;;;;2.91;63.67;94027.63;5050409;28;20224;-75
2023/01/27 09:34:21;;;;;;;6.77;6.07;;;;;;;2.90;63.97;94002.63;5052041;28;20228;-74
2023/01/27 09:36:53;;;;;;;7.13;6.43;;;;;;;2.87;63.87;94001.09;5049602;28;20228;-73
2023/01/27 09:39:20;;;;;;;9.23;6.67;;;;;;;2.84;64.46;93997.94;5050497;28;20189;-75
2023/01/27 09:42:00;;;;;;;14.57;8.70;;;;;;;2.85;64.67;94007.38;5059536;28;20223;-73
2023/01/27 09:44:48;;;;;;;8.37;7.33;;;;;;;2.17;66.72;94004.41;5043567;28;20230;-73
2023/01/27 09:47:51;;;;;;;10.83;9.73;;;;;;;2.36;66.75;93994.13;5055493;28;20367;-76
2023/01/27 09:50:44;;;;;;;11.20;10.03;;;;;;;2.55;66.08;93993.44;5048657;28;20232;-74
2023/01/27 09:53:13;;;;;;;11.50;10.30;;;;;;;2.30;66.73;93993.81;5047024;28;20236;-76
2023/01/27 09:55:48;;;;;;;11.27;9.53;;;;;;;2.32;67.75;93992.72;5049411;28;20222;-77
2023/01/27 09:58:23;;;;;;;11.30;9.97;;;;;;;2.28;67.43;93977.56;5051715;28;20213;-74
2023/01/27 10:01:10;;;;;;;11.73;9.40;;;;;;;2.29;67.72;93980.03;5043228;28;20281;-76
2023/01/27 10:04:08;;;;;;;13.47;10.33;;;;;;;2.36;67.18;93980.34;5046413;28;20268;-75
2023/01/27 10:07:03;;;;;;;14.87;10.60;;;;;;;2.43;67.10;93978.88;5047036;28;20201;-71
2023/01/27 10:09:37;;;;;;;10.90;9.10;;;;;;;2.49;67.02;93978.38;4973073;28;20650;-70
2023/01/27 10:12:05;;;;;;;10.87;9.30;;;;;;;2.57;66.77;93968.19;4974470;28;20234;-72
2023/01/27 10:14:42;;;;;;;10.17;8.33;;;;;;;2.61;66.59;93974.72;4979264;28;20297;-71
2023/01/27 10:17:23;;;;;;;9.80;8.43;;;;;;;2.73;65.85;93969.50;4993850;28;20364;-71
2023/01/27 10:20:08;;;;;;;10.37;8.57;;;;;;;2.73;66.02;93977.28;4975174;28;20248;-74
2023/01/27 10:22:52;;;;;;;9.80;7.60;;;;;;;2.67;66.43;93975.16;4972933;28;20234;-73
2023/01/27 10:25:17;;;;;;;12.47;8.10;;;;;;;2.46;67.63;93976.03;4991114;28;20238;-75
2023/01/27 10:27:51;;;;;;;11.67;8.30;;;;;;;2.69;66.87;93968.91;4994222;28;20195;-76
2023/01/27 10:30:25;;;;;;;8.03;6.73;;;;;;;2.59;66.70;93971.47;4974312;28;20219;-74
2023/01/27 10:33:16;;;;;;;8.60;7.70;;;;;;;2.56;67.23;93974.31;4978024;28;20226;-74
2023/01/27 10:35:49;;;;;;;10.93;7.57;;;;;;;2.67;66.47;93962.19;4973815;28;20218;-78
2023/01/27 10:38:29;;;;;;;10.50;7.27;;;;;;;2.71;66.54;93961.81;4988276;28;20220;-74
2023/01/27 10:41:06;;;;;;;8.33;7.53;;;;;;;2.81;66.38;93965.28;4971116;28;20219;-76
2023/01/27 10:44:04;;;;;;;11.10;8.40;;;;;;;2.71;66.26;93967.00;4970433;28;20422;-76
2023/01/27 10:46:56;;;;;;;11.03;8.57;;;;;;;2.83;65.96;93971.16;4952646;28;20228;-76
2023/01/27 10:49:56;;;;;;;10.97;8.90;;;;;;;2.71;66.44;93961.00;4965830;28;20271;-76
2023/01/27 10:52:48;;;;;;;11.47;8.90;;;;;;;2.70;66.77;93959.34;4970262;28;20225;-76
2023/01/27 10:55:24;;;;;;;9.67;7.67;;;;;;;2.70;66.58;93956.75;4936728;28;20232;-74
2023/01/27 10:58:03;;;;;;;11.20;9.00;;;;;;;2.37;66.83;93966.41;4952625;28;20284;-74
2023/01/27 11:00:46;;;;;;;8.17;7.37;;;;;;;2.61;66.27;93961.75;4933339;29;20204;-75
2023/01/27 11:03:22;;;;;;;8.57;7.67;;;;;;;2.61;65.87;93959.16;4950624;28;20268;-75
2023/01/27 11:05:51;;;;;;;13.67;9.00;;;;;;;2.55;66.16;93962.28;4946559;28;20225;-74
2023/01/27 11:08:27;;;;;;;10.90;9.77;;;;;;;2.62;66.56;93954.81;4948695;28;20393;-74
2023/01/27 11:13:40;;;;;;;9.87;8.87;;;;;;;2.49;66.66;93955.03;4951071;28;20234;-74
2023/01/27 11:16:13;;;;;;;10.47;8.83;;;;;;;2.61;66.96;93955.75;4949475;28;20255;-75
2023/01/27 11:18:42;;;;;;;10.60;9.07;;;;;;;2.64;66.87;93939.91;4930542;29;20263;-74
2023/01/27 11:21:16;;;;;;;11.27;9.60;;;;;;;2.76;66.19;93945.84;4949880;28;20189;-75
2023/01/27 11:23:50;;;;;;;10.67;8.57;;;;;;;2.73;66.00;93946.13;4980328;28;20230;-74
2023/01/27 11:26:24;;;;;;;9.17;8.30;;;;;;;2.74;65.92;93945.16;4990011;28;20238;-74
2023/01/27 11:29:30;;;;;;;9.97;9.07;;;;;;;2.49;66.77;93941.22;4989218;28;20231;-75
2023/01/27 11:32:19;;;;;;;10.13;9.13;;;;;;;2.42;66.75;93948.69;5007004;28;20233;-67
2023/01/27 11:35:13;;;;;;;9.87;8.30;;;;;;;2.26;67.63;93948.34;5047749;28;20224;-72
2023/01/27 11:37:42;;;;;;;9.27;7.10;;;;;;;2.26;67.04;93943.16;4937334;28;20239;-72
2023/01/27 11:40:20;;;;;;;8.20;7.40;;;;;;;1.97;68.28;93938.59;4936119;28;20225;-71
2023/01/27 11:42:46;;;;;;;8.10;7.40;;;;;;;1.70;69.75;93946.88;4949139;28;20201;-75
2023/01/27 11:45:16;;;;;;;8.23;7.33;;;;;;;1.84;69.23;93940.56;4936097;28;20211;-69
2023/01/27 11:47:43;;;;;;;9.00;6.30;;;;;;;2.03;68.67;93932.91;4934924;28;20229;-71
2023/01/27 11:50:20;;;;;;;8.53;6.20;;;;;;;1.90;68.43;93927.13;4932289;29;20225;-68
2023/01/27 11:52:50;;;;;;;7.03;5.90;;;;;;;2.05;68.23;93928.41;4934009;28;20244;-69
2023/01/27 11:55:20;;;;;;;6.77;5.83;;;;;;;2.05;67.70;93927.59;4936220;29;20229;-69
2023/01/27 11:58:01;;;;;;;5.93;5.30;;;;;;;2.29;66.47;93929.91;4934976;28;20279;-71
2023/01/27 12:00:37;;;;;;;6.27;5.70;;;;;;;2.31;66.68;93935.81;4937375;28;20191;-69
2023/01/27 12:03:12;;;;;;;6.17;5.57;;;;;;;2.18;67.47;93926.44;4940329;28;20250;-68
2023/01/27 12:05:44;;;;;;;7.07;6.37;;;;;;;2.31;66.67;93931.44;4946165;28;20310;-68
2023/01/27 12:08:09;;;;;;;7.07;6.10;;;;;;;2.22;67.39;93927.03;4934656;28;20315;-68
2023/01/27 12:10:41;;;;;;;7.03;5.73;;;;;;;2.44;66.71;93926.03;4935133;29;20423;-69
2023/01/27 12:13:16;;;;;;;6.73;6.10;;;;;;;2.35;66.90;93925.06;4936945;28;20279;-68
2023/01/27 12:16:07;;;;;;;7.83;6.33;;;;;;;2.53;66.53;93924.44;5053200;28;20193;-70
2023/01/27 12:18:45;;;;;;;6.87;6.17;;;;;;;2.00;67.71;93925.38;5041874;28;20257;-70
2023/01/27 12:21:12;;;;;;;8.10;6.17;;;;;;;2.34;67.13;93935.56;5047838;28;20312;-69
2023/01/27 12:23:55;;;;;;;7.40;6.20;;;;;;;2.40;66.29;93932.44;5052920;28;20240;-69
2023/01/27 12:26:56;;;;;;;7.00;6.30;;;;;;;2.47;66.69;93930.16;5048264;28;20248;-70